sensor_id;sensor_type;location;lat;lon;timestamp;P1;durP1;ratioP1;P2;durP2;ratioP2
61250;SDS011;47126;47.508;8.590;2023-04-29T00:01:36;8.13;;;5.50;;
61250;SDS011;47126;47.508;8.590;2023-04-29T00:04:02;9.27;;;5.65;;
61250;SDS011;47126;47.508;8.590;2023-04-29T00:06:28;7.88;;;5.18;;
61250;SDS011;47126;47.508;8.590;2023-04-29T00:08:54;9.35;;;4.70;;
61250;SDS011;47126;47.508;8.590;2023-04-29T00:11:20;9.27;;;5.88;;
61250;SDS011;47126;47.508;8.590;2023-04-29T00:13:46;12.05;;;6.15;;
61250;SDS011;47126;47.508;8.590;2023-04-29T00:16:13;9.55;;;6.25;;
61250;SDS011;47126;47.508;8.590;2023-04-29T00:18:39;9.02;;;6.05;;
61250;SDS011;47126;47.508;8.590;2023-04-29T00:21:05;9.38;;;6.15;;
61250;SDS011;47126;47.508;8.590;2023-04-29T00:23:32;11.93;;;5.55;;
61250;SDS011;47126;47.508;8.590;2023-04-29T00:25:58;11.07;;;5.75;;
61250;SDS011;47126;47.508;8.590;2023-04-29T00:28:24;10.00;;;6.60;;
61250;SDS011;47126;47.508;8.590;2023-04-29T00:30:50;10.10;;;6.22;;
61250;SDS011;47126;47.508;8.590;2023-04-29T00:33:17;11.75;;;6.85;;
61250;SDS011;47126;47.508;8.590;2023-04-29T00:35:43;11.88;;;6.90;;
61250;SDS011;47126;47.508;8.590;2023-04-29T00:38:09;12.35;;;6.63;;
61250;SDS011;47126;47.508;8.590;2023-04-29T00:40:35;12.80;;;7.88;;
61250;SDS011;47126;47.508;8.590;2023-04-29T00:43:01;10.93;;;7.25;;
61250;SDS011;47126;47.508;8.590;2023-04-29T00:45:27;15.38;;;8.43;;
61250;SDS011;47126;47.508;8.590;2023-04-29T00:47:53;10.80;;;6.82;;
61250;SDS011;47126;47.508;8.590;2023-04-29T00:50:20;9.52;;;6.05;;
61250;SDS011;47126;47.508;8.590;2023-04-29T00:52:46;9.98;;;5.85;;
61250;SDS011;47126;47.508;8.590;2023-04-29T00:55:12;10.10;;;6.10;;
61250;SDS011;47126;47.508;8.590;2023-04-29T00:57:39;12.38;;;7.38;;
61250;SDS011;47126;47.508;8.590;2023-04-29T01:00:05;13.98;;;8.35;;
61250;SDS011;47126;47.508;8.590;2023-04-29T01:02:33;14.43;;;8.70;;
61250;SDS011;47126;47.508;8.590;2023-04-29T01:04:59;12.45;;;7.47;;
61250;SDS011;47126;47.508;8.590;2023-04-29T01:07:29;10.75;;;7.35;;
61250;SDS011;47126;47.508;8.590;2023-04-29T01:10:03;17.88;;;7.55;;
61250;SDS011;47126;47.508;8.590;2023-04-29T01:12:33;11.85;;;8.27;;
61250;SDS011;47126;47.508;8.590;2023-04-29T01:17:38;12.45;;;8.40;;
61250;SDS011;47126;47.508;8.590;2023-04-29T01:20:05;11.82;;;8.40;;
61250;SDS011;47126;47.508;8.590;2023-04-29T01:22:32;10.90;;;7.97;;
61250;SDS011;47126;47.508;8.590;2023-04-29T01:24:58;10.30;;;6.97;;
61250;SDS011;47126;47.508;8.590;2023-04-29T01:27:33;12.55;;;7.30;;
61250;SDS011;47126;47.508;8.590;2023-04-29T01:30:13;14.77;;;11.32;;
61250;SDS011;47126;47.508;8.590;2023-04-29T01:37:39;12.70;;;8.68;;
61250;SDS011;47126;47.508;8.590;2023-04-29T01:40:19;15.55;;;11.63;;
61250;SDS011;47126;47.508;8.590;2023-04-29T01:43:03;18.42;;;15.30;;
61250;SDS011;47126;47.508;8.590;2023-04-29T01:45:32;14.20;;;11.35;;
61250;SDS011;47126;47.508;8.590;2023-04-29T01:47:59;14.45;;;9.43;;
61250;SDS011;47126;47.508;8.590;2023-04-29T01:50:26;16.55;;;12.18;;
61250;SDS011;47126;47.508;8.590;2023-04-29T01:52:52;10.40;;;6.95;;
61250;SDS011;47126;47.508;8.590;2023-04-29T01:55:18;9.88;;;6.97;;
61250;SDS011;47126;47.508;8.590;2023-04-29T01:57:45;13.43;;;8.05;;
61250;SDS011;47126;47.508;8.590;2023-04-29T02:00:11;10.52;;;6.32;;
61250;SDS011;47126;47.508;8.590;2023-04-29T02:02:37;12.35;;;7.25;;
61250;SDS011;47126;47.508;8.590;2023-04-29T02:05:03;10.30;;;7.00;;
61250;SDS011;47126;47.508;8.590;2023-04-29T02:07:29;13.10;;;8.70;;
61250;SDS011;47126;47.508;8.590;2023-04-29T02:09:55;12.77;;;8.45;;
61250;SDS011;47126;47.508;8.590;2023-04-29T02:12:21;12.73;;;8.07;;
61250;SDS011;47126;47.508;8.590;2023-04-29T02:14:50;13.82;;;7.55;;
61250;SDS011;47126;47.508;8.590;2023-04-29T02:17:17;16.50;;;8.20;;
61250;SDS011;47126;47.508;8.590;2023-04-29T02:19:43;13.02;;;8.10;;
61250;SDS011;47126;47.508;8.590;2023-04-29T02:22:09;13.90;;;8.80;;
61250;SDS011;47126;47.508;8.590;2023-04-29T02:24:36;13.15;;;8.98;;
61250;SDS011;47126;47.508;8.590;2023-04-29T02:27:02;11.93;;;8.25;;
61250;SDS011;47126;47.508;8.590;2023-04-29T02:29:30;13.63;;;7.88;;
61250;SDS011;47126;47.508;8.590;2023-04-29T02:31:56;11.98;;;8.65;;
61250;SDS011;47126;47.508;8.590;2023-04-29T02:34:22;10.90;;;6.82;;
61250;SDS011;47126;47.508;8.590;2023-04-29T02:36:48;10.45;;;6.32;;
61250;SDS011;47126;47.508;8.590;2023-04-29T02:39:14;9.65;;;5.72;;
61250;SDS011;47126;47.508;8.590;2023-04-29T02:41:40;11.43;;;5.50;;
61250;SDS011;47126;47.508;8.590;2023-04-29T02:44:07;12.57;;;7.03;;
61250;SDS011;47126;47.508;8.590;2023-04-29T02:46:33;15.00;;;7.40;;
61250;SDS011;47126;47.508;8.590;2023-04-29T02:49:00;11.75;;;7.40;;
61250;SDS011;47126;47.508;8.590;2023-04-29T02:51:26;13.07;;;7.07;;
61250;SDS011;47126;47.508;8.590;2023-04-29T02:53:53;10.73;;;6.57;;
61250;SDS011;47126;47.508;8.590;2023-04-29T02:56:19;11.38;;;6.85;;
61250;SDS011;47126;47.508;8.590;2023-04-29T02:58:45;12.68;;;6.90;;
61250;SDS011;47126;47.508;8.590;2023-04-29T03:01:11;12.90;;;7.22;;
61250;SDS011;47126;47.508;8.590;2023-04-29T03:03:37;13.07;;;7.30;;
61250;SDS011;47126;47.508;8.590;2023-04-29T03:06:04;11.88;;;8.25;;
61250;SDS011;47126;47.508;8.590;2023-04-29T03:08:30;10.45;;;7.15;;
61250;SDS011;47126;47.508;8.590;2023-04-29T03:10:56;10.27;;;6.68;;
61250;SDS011;47126;47.508;8.590;2023-04-29T03:13:22;11.15;;;7.45;;
61250;SDS011;47126;47.508;8.590;2023-04-29T03:15:48;14.98;;;7.53;;
61250;SDS011;47126;47.508;8.590;2023-04-29T03:18:14;11.98;;;7.03;;
61250;SDS011;47126;47.508;8.590;2023-04-29T03:20:40;10.57;;;6.88;;
61250;SDS011;47126;47.508;8.590;2023-04-29T03:23:06;14.48;;;7.65;;
61250;SDS011;47126;47.508;8.590;2023-04-29T03:25:32;11.93;;;6.85;;
61250;SDS011;47126;47.508;8.590;2023-04-29T03:27:59;10.25;;;6.68;;
61250;SDS011;47126;47.508;8.590;2023-04-29T03:30:25;11.02;;;7.38;;
61250;SDS011;47126;47.508;8.590;2023-04-29T03:32:51;10.32;;;6.28;;
61250;SDS011;47126;47.508;8.590;2023-04-29T03:35:17;12.05;;;6.60;;
61250;SDS011;47126;47.508;8.590;2023-04-29T03:37:43;11.07;;;6.93;;
61250;SDS011;47126;47.508;8.590;2023-04-29T03:40:09;12.85;;;7.07;;
61250;SDS011;47126;47.508;8.590;2023-04-29T03:42:36;10.48;;;6.82;;
61250;SDS011;47126;47.508;8.590;2023-04-29T03:45:02;10.65;;;7.30;;
61250;SDS011;47126;47.508;8.590;2023-04-29T03:47:28;13.40;;;7.53;;
61250;SDS011;47126;47.508;8.590;2023-04-29T03:49:54;13.90;;;7.50;;
61250;SDS011;47126;47.508;8.590;2023-04-29T03:52:20;14.57;;;8.02;;
61250;SDS011;47126;47.508;8.590;2023-04-29T03:54:46;12.85;;;7.15;;
61250;SDS011;47126;47.508;8.590;2023-04-29T03:57:12;11.77;;;6.70;;
61250;SDS011;47126;47.508;8.590;2023-04-29T03:59:38;12.90;;;7.32;;
61250;SDS011;47126;47.508;8.590;2023-04-29T04:02:04;13.40;;;5.82;;
61250;SDS011;47126;47.508;8.590;2023-04-29T04:04:30;11.30;;;5.45;;
61250;SDS011;47126;47.508;8.590;2023-04-29T04:06:56;10.30;;;5.40;;
61250;SDS011;47126;47.508;8.590;2023-04-29T04:09:22;9.60;;;5.22;;
61250;SDS011;47126;47.508;8.590;2023-04-29T04:11:48;10.55;;;5.25;;
61250;SDS011;47126;47.508;8.590;2023-04-29T04:14:14;40.88;;;6.72;;
61250;SDS011;47126;47.508;8.590;2023-04-29T04:16:41;45.65;;;7.22;;
61250;SDS011;47126;47.508;8.590;2023-04-29T04:19:07;13.27;;;7.63;;
61250;SDS011;47126;47.508;8.590;2023-04-29T04:21:33;14.77;;;9.43;;
61250;SDS011;47126;47.508;8.590;2023-04-29T04:24:00;14.00;;;8.25;;
61250;SDS011;47126;47.508;8.590;2023-04-29T04:26:26;14.30;;;8.65;;
61250;SDS011;47126;47.508;8.590;2023-04-29T04:28:52;15.45;;;8.80;;
61250;SDS011;47126;47.508;8.590;2023-04-29T04:31:18;11.02;;;8.02;;
61250;SDS011;47126;47.508;8.590;2023-04-29T04:33:44;6.38;;;4.00;;
61250;SDS011;47126;47.508;8.590;2023-04-29T04:36:10;5.50;;;3.85;;
61250;SDS011;47126;47.508;8.590;2023-04-29T04:38:36;6.53;;;3.78;;
61250;SDS011;47126;47.508;8.590;2023-04-29T04:41:04;7.85;;;4.43;;
61250;SDS011;47126;47.508;8.590;2023-04-29T04:43:31;7.38;;;4.05;;
61250;SDS011;47126;47.508;8.590;2023-04-29T04:45:57;6.13;;;4.00;;
61250;SDS011;47126;47.508;8.590;2023-04-29T04:48:23;8.10;;;3.65;;
61250;SDS011;47126;47.508;8.590;2023-04-29T04:50:50;5.43;;;3.67;;
61250;SDS011;47126;47.508;8.590;2023-04-29T04:53:16;12.90;;;3.83;;
61250;SDS011;47126;47.508;8.590;2023-04-29T04:55:42;5.78;;;3.50;;
61250;SDS011;47126;47.508;8.590;2023-04-29T04:58:08;9.70;;;4.15;;
61250;SDS011;47126;47.508;8.590;2023-04-29T05:00:34;5.88;;;3.20;;
61250;SDS011;47126;47.508;8.590;2023-04-29T05:03:00;7.20;;;3.45;;
61250;SDS011;47126;47.508;8.590;2023-04-29T05:05:26;3.85;;;2.92;;
61250;SDS011;47126;47.508;8.590;2023-04-29T05:07:52;6.07;;;3.80;;
61250;SDS011;47126;47.508;8.590;2023-04-29T05:10:18;6.88;;;3.10;;
61250;SDS011;47126;47.508;8.590;2023-04-29T05:12:44;6.03;;;4.00;;
61250;SDS011;47126;47.508;8.590;2023-04-29T05:15:10;8.52;;;4.90;;
61250;SDS011;47126;47.508;8.590;2023-04-29T05:17:36;7.70;;;4.95;;
61250;SDS011;47126;47.508;8.590;2023-04-29T05:20:02;8.30;;;5.53;;
61250;SDS011;47126;47.508;8.590;2023-04-29T05:22:29;5.75;;;4.18;;
61250;SDS011;47126;47.508;8.590;2023-04-29T05:24:55;8.93;;;5.72;;
61250;SDS011;47126;47.508;8.590;2023-04-29T05:27:26;8.73;;;6.72;;
61250;SDS011;47126;47.508;8.590;2023-04-29T05:29:52;9.82;;;6.63;;
61250;SDS011;47126;47.508;8.590;2023-04-29T05:32:19;9.10;;;5.70;;
61250;SDS011;47126;47.508;8.590;2023-04-29T05:34:45;9.05;;;5.55;;
61250;SDS011;47126;47.508;8.590;2023-04-29T05:37:11;6.75;;;4.75;;
61250;SDS011;47126;47.508;8.590;2023-04-29T05:39:37;5.72;;;3.78;;
61250;SDS011;47126;47.508;8.590;2023-04-29T05:42:03;8.25;;;3.83;;
61250;SDS011;47126;47.508;8.590;2023-04-29T05:44:29;6.95;;;3.47;;
61250;SDS011;47126;47.508;8.590;2023-04-29T05:46:55;6.75;;;3.67;;
61250;SDS011;47126;47.508;8.590;2023-04-29T05:49:21;4.97;;;2.60;;
61250;SDS011;47126;47.508;8.590;2023-04-29T05:51:47;3.90;;;2.50;;
61250;SDS011;47126;47.508;8.590;2023-04-29T05:54:13;5.80;;;2.75;;
61250;SDS011;47126;47.508;8.590;2023-04-29T05:56:39;5.35;;;2.45;;
61250;SDS011;47126;47.508;8.590;2023-04-29T05:59:05;3.33;;;2.33;;
61250;SDS011;47126;47.508;8.590;2023-04-29T06:01:32;2.47;;;1.92;;
61250;SDS011;47126;47.508;8.590;2023-04-29T06:03:58;3.17;;;2.28;;
61250;SDS011;47126;47.508;8.590;2023-04-29T06:06:24;4.05;;;2.88;;
61250;SDS011;47126;47.508;8.590;2023-04-29T06:08:50;5.00;;;2.80;;
61250;SDS011;47126;47.508;8.590;2023-04-29T06:11:17;3.85;;;2.85;;
61250;SDS011;47126;47.508;8.590;2023-04-29T06:13:43;4.22;;;2.88;;
61250;SDS011;47126;47.508;8.590;2023-04-29T06:16:09;3.50;;;2.80;;
61250;SDS011;47126;47.508;8.590;2023-04-29T06:18:35;3.58;;;2.30;;
61250;SDS011;47126;47.508;8.590;2023-04-29T06:21:02;3.55;;;2.20;;
61250;SDS011;47126;47.508;8.590;2023-04-29T06:23:28;3.58;;;2.55;;
61250;SDS011;47126;47.508;8.590;2023-04-29T06:25:56;5.88;;;2.45;;
61250;SDS011;47126;47.508;8.590;2023-04-29T06:28:21;6.68;;;2.72;;
61250;SDS011;47126;47.508;8.590;2023-04-29T06:30:47;5.30;;;2.50;;
61250;SDS011;47126;47.508;8.590;2023-04-29T06:33:14;3.53;;;2.40;;
61250;SDS011;47126;47.508;8.590;2023-04-29T06:35:40;2.95;;;2.25;;
61250;SDS011;47126;47.508;8.590;2023-04-29T06:38:06;4.55;;;2.70;;
61250;SDS011;47126;47.508;8.590;2023-04-29T06:40:32;3.28;;;2.45;;
61250;SDS011;47126;47.508;8.590;2023-04-29T06:42:58;5.40;;;2.22;;
61250;SDS011;47126;47.508;8.590;2023-04-29T06:45:25;3.28;;;2.00;;
61250;SDS011;47126;47.508;8.590;2023-04-29T06:47:52;2.35;;;1.80;;
61250;SDS011;47126;47.508;8.590;2023-04-29T06:50:18;3.25;;;1.75;;
61250;SDS011;47126;47.508;8.590;2023-04-29T06:52:44;3.78;;;1.92;;
61250;SDS011;47126;47.508;8.590;2023-04-29T06:55:10;2.30;;;1.83;;
61250;SDS011;47126;47.508;8.590;2023-04-29T06:57:36;4.13;;;2.00;;
61250;SDS011;47126;47.508;8.590;2023-04-29T07:00:02;5.80;;;2.28;;
61250;SDS011;47126;47.508;8.590;2023-04-29T07:02:29;3.03;;;2.28;;
61250;SDS011;47126;47.508;8.590;2023-04-29T07:04:55;7.30;;;2.00;;
61250;SDS011;47126;47.508;8.590;2023-04-29T07:07:21;3.08;;;1.80;;
61250;SDS011;47126;47.508;8.590;2023-04-29T07:09:47;3.45;;;2.42;;
61250;SDS011;47126;47.508;8.590;2023-04-29T07:12:15;3.83;;;2.08;;
61250;SDS011;47126;47.508;8.590;2023-04-29T07:14:41;3.38;;;2.40;;
61250;SDS011;47126;47.508;8.590;2023-04-29T07:17:07;6.72;;;2.30;;
61250;SDS011;47126;47.508;8.590;2023-04-29T07:19:34;4.80;;;3.10;;
61250;SDS011;47126;47.508;8.590;2023-04-29T07:22:00;4.28;;;2.90;;
61250;SDS011;47126;47.508;8.590;2023-04-29T07:24:27;5.43;;;2.75;;
61250;SDS011;47126;47.508;8.590;2023-04-29T07:26:53;4.55;;;2.80;;
61250;SDS011;47126;47.508;8.590;2023-04-29T07:29:19;4.20;;;2.90;;
61250;SDS011;47126;47.508;8.590;2023-04-29T07:31:45;3.97;;;2.78;;
61250;SDS011;47126;47.508;8.590;2023-04-29T07:34:11;4.95;;;2.30;;
61250;SDS011;47126;47.508;8.590;2023-04-29T07:36:37;3.85;;;2.80;;
61250;SDS011;47126;47.508;8.590;2023-04-29T07:39:03;3.72;;;2.55;;
61250;SDS011;47126;47.508;8.590;2023-04-29T07:41:29;5.53;;;2.55;;
61250;SDS011;47126;47.508;8.590;2023-04-29T07:43:55;4.13;;;2.30;;
61250;SDS011;47126;47.508;8.590;2023-04-29T07:46:21;5.40;;;2.53;;
61250;SDS011;47126;47.508;8.590;2023-04-29T07:48:47;4.88;;;2.92;;
61250;SDS011;47126;47.508;8.590;2023-04-29T07:51:13;4.15;;;2.40;;
61250;SDS011;47126;47.508;8.590;2023-04-29T07:53:40;3.83;;;2.47;;
61250;SDS011;47126;47.508;8.590;2023-04-29T07:56:06;2.90;;;2.03;;
61250;SDS011;47126;47.508;8.590;2023-04-29T07:58:32;2.95;;;2.05;;
61250;SDS011;47126;47.508;8.590;2023-04-29T08:01:08;3.53;;;2.33;;
61250;SDS011;47126;47.508;8.590;2023-04-29T08:03:35;3.92;;;2.42;;
61250;SDS011;47126;47.508;8.590;2023-04-29T08:06:04;4.75;;;2.20;;
61250;SDS011;47126;47.508;8.590;2023-04-29T08:08:30;2.78;;;2.20;;
61250;SDS011;47126;47.508;8.590;2023-04-29T08:10:56;6.70;;;2.28;;
61250;SDS011;47126;47.508;8.590;2023-04-29T08:13:23;5.10;;;2.42;;
61250;SDS011;47126;47.508;8.590;2023-04-29T08:15:49;4.20;;;1.88;;
61250;SDS011;47126;47.508;8.590;2023-04-29T08:18:15;2.53;;;1.83;;
61250;SDS011;47126;47.508;8.590;2023-04-29T08:20:41;5.53;;;2.17;;
61250;SDS011;47126;47.508;8.590;2023-04-29T08:23:07;5.47;;;2.00;;
61250;SDS011;47126;47.508;8.590;2023-04-29T08:25:33;6.85;;;2.13;;
61250;SDS011;47126;47.508;8.590;2023-04-29T08:27:59;4.50;;;2.00;;
61250;SDS011;47126;47.508;8.590;2023-04-29T08:30:25;2.67;;;1.77;;
61250;SDS011;47126;47.508;8.590;2023-04-29T08:32:51;6.13;;;1.77;;
61250;SDS011;47126;47.508;8.590;2023-04-29T08:35:17;3.25;;;1.90;;
61250;SDS011;47126;47.508;8.590;2023-04-29T08:37:43;3.38;;;1.80;;
61250;SDS011;47126;47.508;8.590;2023-04-29T08:40:09;2.08;;;1.65;;
61250;SDS011;47126;47.508;8.590;2023-04-29T08:42:35;5.80;;;1.52;;
61250;SDS011;47126;47.508;8.590;2023-04-29T08:45:02;2.63;;;1.50;;
61250;SDS011;47126;47.508;8.590;2023-04-29T08:47:29;4.30;;;1.90;;
61250;SDS011;47126;47.508;8.590;2023-04-29T08:49:55;4.80;;;2.05;;
61250;SDS011;47126;47.508;8.590;2023-04-29T08:52:22;3.80;;;1.92;;
61250;SDS011;47126;47.508;8.590;2023-04-29T08:54:49;3.88;;;2.03;;
61250;SDS011;47126;47.508;8.590;2023-04-29T08:57:15;3.47;;;1.80;;
61250;SDS011;47126;47.508;8.590;2023-04-29T08:59:41;5.32;;;1.58;;
61250;SDS011;47126;47.508;8.590;2023-04-29T09:02:08;2.75;;;1.85;;
61250;SDS011;47126;47.508;8.590;2023-04-29T09:07:05;3.45;;;1.48;;
61250;SDS011;47126;47.508;8.590;2023-04-29T09:09:32;2.90;;;1.20;;
61250;SDS011;47126;47.508;8.590;2023-04-29T09:11:58;1.50;;;1.20;;
61250;SDS011;47126;47.508;8.590;2023-04-29T09:14:24;2.45;;;1.02;;
61250;SDS011;47126;47.508;8.590;2023-04-29T09:16:50;1.48;;;1.00;;
61250;SDS011;47126;47.508;8.590;2023-04-29T09:19:29;2.00;;;1.00;;
61250;SDS011;47126;47.508;8.590;2023-04-29T09:21:59;2.42;;;1.30;;
61250;SDS011;47126;47.508;8.590;2023-04-29T09:24:26;2.00;;;0.85;;
61250;SDS011;47126;47.508;8.590;2023-04-29T09:26:53;3.22;;;1.02;;
61250;SDS011;47126;47.508;8.590;2023-04-29T09:29:19;1.67;;;0.70;;
61250;SDS011;47126;47.508;8.590;2023-04-29T09:31:45;1.95;;;1.00;;
61250;SDS011;47126;47.508;8.590;2023-04-29T09:34:12;1.92;;;0.90;;
61250;SDS011;47126;47.508;8.590;2023-04-29T09:36:42;2.38;;;1.00;;
61250;SDS011;47126;47.508;8.590;2023-04-29T09:39:12;1.63;;;0.98;;
61250;SDS011;47126;47.508;8.590;2023-04-29T09:41:39;6.43;;;1.00;;
61250;SDS011;47126;47.508;8.590;2023-04-29T09:44:06;1.23;;;0.90;;
61250;SDS011;47126;47.508;8.590;2023-04-29T09:46:32;1.55;;;0.85;;
61250;SDS011;47126;47.508;8.590;2023-04-29T09:49:00;1.23;;;0.98;;
61250;SDS011;47126;47.508;8.590;2023-04-29T09:51:26;3.22;;;1.00;;
61250;SDS011;47126;47.508;8.590;2023-04-29T09:53:52;1.70;;;1.10;;
61250;SDS011;47126;47.508;8.590;2023-04-29T09:56:18;3.65;;;1.13;;
61250;SDS011;47126;47.508;8.590;2023-04-29T09:58:45;2.15;;;1.00;;
61250;SDS011;47126;47.508;8.590;2023-04-29T10:01:11;2.22;;;1.10;;
61250;SDS011;47126;47.508;8.590;2023-04-29T10:03:38;2.72;;;0.90;;
61250;SDS011;47126;47.508;8.590;2023-04-29T10:06:06;2.45;;;0.93;;
61250;SDS011;47126;47.508;8.590;2023-04-29T10:08:33;1.05;;;0.65;;
61250;SDS011;47126;47.508;8.590;2023-04-29T10:11:00;4.20;;;1.08;;
61250;SDS011;47126;47.508;8.590;2023-04-29T10:13:26;2.33;;;1.08;;
61250;SDS011;47126;47.508;8.590;2023-04-29T10:18:39;4.53;;;1.13;;
61250;SDS011;47126;47.508;8.590;2023-04-29T10:21:06;1.67;;;0.93;;
61250;SDS011;47126;47.508;8.590;2023-04-29T10:23:33;1.38;;;1.10;;
61250;SDS011;47126;47.508;8.590;2023-04-29T10:25:59;2.33;;;1.10;;
61250;SDS011;47126;47.508;8.590;2023-04-29T10:28:28;1.75;;;1.00;;
61250;SDS011;47126;47.508;8.590;2023-04-29T10:30:56;1.65;;;1.00;;
61250;SDS011;47126;47.508;8.590;2023-04-29T10:33:22;4.07;;;1.00;;
61250;SDS011;47126;47.508;8.590;2023-04-29T10:35:51;1.13;;;1.00;;
61250;SDS011;47126;47.508;8.590;2023-04-29T10:38:23;2.88;;;1.30;;
61250;SDS011;47126;47.508;8.590;2023-04-29T10:40:51;1.77;;;1.10;;
61250;SDS011;47126;47.508;8.590;2023-04-29T10:43:23;1.58;;;1.10;;
61250;SDS011;47126;47.508;8.590;2023-04-29T10:45:56;1.17;;;0.80;;
61250;SDS011;47126;47.508;8.590;2023-04-29T10:48:36;1.50;;;0.70;;
61250;SDS011;47126;47.508;8.590;2023-04-29T10:51:02;1.95;;;0.90;;
61250;SDS011;47126;47.508;8.590;2023-04-29T10:53:28;2.05;;;0.90;;
61250;SDS011;47126;47.508;8.590;2023-04-29T10:55:58;2.42;;;0.93;;
61250;SDS011;47126;47.508;8.590;2023-04-29T10:58:34;0.90;;;0.75;;
61250;SDS011;47126;47.508;8.590;2023-04-29T11:01:01;2.33;;;0.90;;
61250;SDS011;47126;47.508;8.590;2023-04-29T11:06:12;3.97;;;1.00;;
61250;SDS011;47126;47.508;8.590;2023-04-29T11:08:39;1.42;;;0.90;;
61250;SDS011;47126;47.508;8.590;2023-04-29T11:11:05;3.67;;;1.20;;
61250;SDS011;47126;47.508;8.590;2023-04-29T11:13:31;2.40;;;1.05;;
61250;SDS011;47126;47.508;8.590;2023-04-29T11:16:05;1.35;;;0.85;;
61250;SDS011;47126;47.508;8.590;2023-04-29T11:18:32;6.63;;;1.40;;
61250;SDS011;47126;47.508;8.590;2023-04-29T11:23:33;1.42;;;1.30;;
61250;SDS011;47126;47.508;8.590;2023-04-29T11:25:59;2.30;;;1.10;;
61250;SDS011;47126;47.508;8.590;2023-04-29T11:28:29;1.48;;;1.05;;
61250;SDS011;47126;47.508;8.590;2023-04-29T11:30:56;2.05;;;0.85;;
61250;SDS011;47126;47.508;8.590;2023-04-29T11:33:22;2.85;;;1.17;;
61250;SDS011;47126;47.508;8.590;2023-04-29T11:35:48;1.13;;;0.80;;
61250;SDS011;47126;47.508;8.590;2023-04-29T11:38:15;1.08;;;0.77;;
61250;SDS011;47126;47.508;8.590;2023-04-29T11:40:41;2.28;;;0.93;;
61250;SDS011;47126;47.508;8.590;2023-04-29T11:43:07;5.10;;;1.00;;
61250;SDS011;47126;47.508;8.590;2023-04-29T11:45:38;4.25;;;1.10;;
61250;SDS011;47126;47.508;8.590;2023-04-29T11:48:04;2.72;;;1.00;;
61250;SDS011;47126;47.508;8.590;2023-04-29T11:50:31;2.97;;;0.93;;
61250;SDS011;47126;47.508;8.590;2023-04-29T11:52:57;1.38;;;1.00;;
61250;SDS011;47126;47.508;8.590;2023-04-29T11:55:23;2.70;;;1.10;;
61250;SDS011;47126;47.508;8.590;2023-04-29T11:57:50;9.85;;;1.10;;
61250;SDS011;47126;47.508;8.590;2023-04-29T12:00:17;3.58;;;0.82;;
61250;SDS011;47126;47.508;8.590;2023-04-29T12:02:44;3.38;;;0.80;;
61250;SDS011;47126;47.508;8.590;2023-04-29T12:05:10;2.10;;;0.95;;
61250;SDS011;47126;47.508;8.590;2023-04-29T12:07:40;1.73;;;1.00;;
61250;SDS011;47126;47.508;8.590;2023-04-29T12:10:06;2.65;;;1.08;;
61250;SDS011;47126;47.508;8.590;2023-04-29T12:12:33;1.65;;;0.93;;
61250;SDS011;47126;47.508;8.590;2023-04-29T12:15:00;4.32;;;1.00;;
61250;SDS011;47126;47.508;8.590;2023-04-29T12:17:27;4.47;;;1.20;;
61250;SDS011;47126;47.508;8.590;2023-04-29T12:19:53;1.98;;;0.70;;
61250;SDS011;47126;47.508;8.590;2023-04-29T12:22:19;2.25;;;0.98;;
61250;SDS011;47126;47.508;8.590;2023-04-29T12:24:45;1.10;;;0.70;;
61250;SDS011;47126;47.508;8.590;2023-04-29T12:27:11;4.63;;;1.00;;
61250;SDS011;47126;47.508;8.590;2023-04-29T12:29:38;1.50;;;0.65;;
61250;SDS011;47126;47.508;8.590;2023-04-29T12:32:11;1.08;;;0.63;;
61250;SDS011;47126;47.508;8.590;2023-04-29T12:34:38;1.40;;;0.80;;
61250;SDS011;47126;47.508;8.590;2023-04-29T12:37:04;1.77;;;0.80;;
61250;SDS011;47126;47.508;8.590;2023-04-29T12:39:30;2.65;;;1.08;;
61250;SDS011;47126;47.508;8.590;2023-04-29T12:41:57;1.38;;;0.60;;
61250;SDS011;47126;47.508;8.590;2023-04-29T12:44:24;1.00;;;0.60;;
61250;SDS011;47126;47.508;8.590;2023-04-29T12:46:50;4.45;;;1.15;;
61250;SDS011;47126;47.508;8.590;2023-04-29T12:49:17;2.25;;;0.80;;
61250;SDS011;47126;47.508;8.590;2023-04-29T12:51:44;1.20;;;0.55;;
61250;SDS011;47126;47.508;8.590;2023-04-29T12:54:10;1.10;;;0.60;;
61250;SDS011;47126;47.508;8.590;2023-04-29T12:56:37;1.30;;;0.63;;
61250;SDS011;47126;47.508;8.590;2023-04-29T12:59:07;7.30;;;2.22;;
61250;SDS011;47126;47.508;8.590;2023-04-29T13:01:33;2.65;;;0.70;;
61250;SDS011;47126;47.508;8.590;2023-04-29T13:03:59;1.27;;;0.60;;
61250;SDS011;47126;47.508;8.590;2023-04-29T13:06:26;2.05;;;0.90;;
61250;SDS011;47126;47.508;8.590;2023-04-29T13:08:52;2.03;;;0.70;;
61250;SDS011;47126;47.508;8.590;2023-04-29T13:11:18;1.65;;;0.55;;
61250;SDS011;47126;47.508;8.590;2023-04-29T13:13:44;1.67;;;0.60;;
61250;SDS011;47126;47.508;8.590;2023-04-29T13:16:10;0.80;;;0.60;;
61250;SDS011;47126;47.508;8.590;2023-04-29T13:18:37;3.83;;;0.55;;
61250;SDS011;47126;47.508;8.590;2023-04-29T13:21:03;2.05;;;0.75;;
61250;SDS011;47126;47.508;8.590;2023-04-29T13:23:29;1.30;;;0.68;;
61250;SDS011;47126;47.508;8.590;2023-04-29T13:25:55;0.90;;;0.60;;
61250;SDS011;47126;47.508;8.590;2023-04-29T13:28:22;2.85;;;0.93;;
61250;SDS011;47126;47.508;8.590;2023-04-29T13:30:48;6.40;;;1.15;;
61250;SDS011;47126;47.508;8.590;2023-04-29T13:33:14;2.75;;;0.70;;
61250;SDS011;47126;47.508;8.590;2023-04-29T13:35:40;1.35;;;0.63;;
61250;SDS011;47126;47.508;8.590;2023-04-29T13:38:07;1.80;;;0.40;;
61250;SDS011;47126;47.508;8.590;2023-04-29T13:40:33;6.22;;;1.23;;
61250;SDS011;47126;47.508;8.590;2023-04-29T13:42:59;3.75;;;0.80;;
61250;SDS011;47126;47.508;8.590;2023-04-29T13:45:25;3.25;;;0.70;;
61250;SDS011;47126;47.508;8.590;2023-04-29T13:47:51;2.50;;;0.60;;
61250;SDS011;47126;47.508;8.590;2023-04-29T13:50:17;1.00;;;0.45;;
61250;SDS011;47126;47.508;8.590;2023-04-29T13:52:43;4.88;;;0.73;;
61250;SDS011;47126;47.508;8.590;2023-04-29T13:55:09;1.13;;;0.68;;
61250;SDS011;47126;47.508;8.590;2023-04-29T13:57:35;1.75;;;0.88;;
61250;SDS011;47126;47.508;8.590;2023-04-29T14:00:01;1.38;;;0.82;;
61250;SDS011;47126;47.508;8.590;2023-04-29T14:02:27;1.27;;;0.70;;
61250;SDS011;47126;47.508;8.590;2023-04-29T14:04:53;1.35;;;0.70;;
61250;SDS011;47126;47.508;8.590;2023-04-29T14:07:19;2.90;;;0.82;;
61250;SDS011;47126;47.508;8.590;2023-04-29T14:09:48;5.10;;;1.08;;
61250;SDS011;47126;47.508;8.590;2023-04-29T14:12:14;3.17;;;0.57;;
61250;SDS011;47126;47.508;8.590;2023-04-29T14:14:40;2.85;;;0.73;;
61250;SDS011;47126;47.508;8.590;2023-04-29T14:17:06;1.13;;;0.55;;
61250;SDS011;47126;47.508;8.590;2023-04-29T14:19:32;1.00;;;0.40;;
61250;SDS011;47126;47.508;8.590;2023-04-29T14:21:58;1.27;;;0.60;;
61250;SDS011;47126;47.508;8.590;2023-04-29T14:24:24;0.98;;;0.50;;
61250;SDS011;47126;47.508;8.590;2023-04-29T14:26:50;0.70;;;0.30;;
61250;SDS011;47126;47.508;8.590;2023-04-29T14:29:17;2.00;;;0.60;;
61250;SDS011;47126;47.508;8.590;2023-04-29T14:31:43;0.40;;;0.40;;
61250;SDS011;47126;47.508;8.590;2023-04-29T14:34:09;1.23;;;0.47;;
61250;SDS011;47126;47.508;8.590;2023-04-29T14:36:35;4.05;;;1.27;;
61250;SDS011;47126;47.508;8.590;2023-04-29T14:39:01;1.42;;;0.60;;
61250;SDS011;47126;47.508;8.590;2023-04-29T14:41:28;2.60;;;0.80;;
61250;SDS011;47126;47.508;8.590;2023-04-29T14:43:54;1.38;;;0.50;;
61250;SDS011;47126;47.508;8.590;2023-04-29T14:46:20;1.58;;;0.55;;
61250;SDS011;47126;47.508;8.590;2023-04-29T14:48:46;1.70;;;0.70;;
61250;SDS011;47126;47.508;8.590;2023-04-29T14:51:12;0.70;;;0.60;;
61250;SDS011;47126;47.508;8.590;2023-04-29T14:53:38;0.80;;;0.60;;
61250;SDS011;47126;47.508;8.590;2023-04-29T14:56:04;1.55;;;0.70;;
61250;SDS011;47126;47.508;8.590;2023-04-29T14:58:32;1.95;;;0.60;;